Time;durP1;ratioP1;P1;durP2;ratioP2;P2;SDS_P1;SDS_P2;PMS_P1;PMS_P2;Temp;Humidity;BMP_temperature;BMP_pressure;BME280_temperature;BME280_humidity;BME280_pressure;Samples;Min_cycle;Max_cycle;Signal;HPM_P1;HPM_P2
2022/06/06 00:02:05;;;;;;;0.13;0.13;;;15.50;99.90;;;;;;4910370;29;20048;-68
2022/06/06 00:04:31;;;;;;;0.25;0.25;;;15.50;99.90;;;;;;4911546;29;20048;-69
2022/06/06 00:06:58;;;;;;;0.10;0.10;;;15.50;99.90;;;;;;4897367;29;20100;-68
2022/06/06 00:09:25;;;;;;;0.52;0.52;;;15.50;99.90;;;;;;4902680;29;20055;-68
2022/06/06 00:11:54;;;;;;;0.00;0.00;;;15.50;99.90;;;;;;4894604;29;20045;-68
2022/06/06 00:14:19;;;;;;;0.40;0.40;;;15.50;99.90;;;;;;4898305;29;20285;-68
2022/06/06 00:16:45;;;;;;;0.08;0.08;;;15.50;99.90;;;;;;4895361;29;20080;-68
2022/06/06 00:19:12;;;;;;;0.77;0.77;;;15.50;99.90;;;;;;4895850;29;20056;-68
2022/06/06 00:21:38;;;;;;;0.20;0.20;;;15.50;99.90;;;;;;4898363;29;20047;-68
2022/06/06 00:24:05;;;;;;;9.45;0.73;;;15.50;99.90;;;;;;4896287;29;20048;-68
2022/06/06 00:26:32;;;;;;;1.08;0.98;;;15.40;99.90;;;;;;4912488;29;20044;-68
2022/06/06 00:28:58;;;;;;;0.22;0.22;;;15.40;99.90;;;;;;4908833;29;20633;-68
2022/06/06 00:36:55;;;;;;;0.57;0.57;;;15.40;99.90;;;;;;4897632;29;20063;-68
2022/06/06 00:39:21;;;;;;;0.10;0.10;;;15.30;99.90;;;;;;4910029;29;20498;-68
2022/06/06 00:41:49;;;;;;;0.95;0.82;;;15.30;99.90;;;;;;4911074;29;20385;-68
2022/06/06 00:44:19;;;;;;;0.43;0.30;;;15.20;99.90;;;;;;4902922;29;20540;-68
2022/06/06 00:46:50;;;;;;;0.00;0.00;;;15.10;99.90;;;;;;4897179;29;20095;-68
2022/06/06 00:49:34;;;;;;;0.25;0.25;;;15.10;99.90;;;;;;4912236;29;20099;-67
2022/06/06 00:52:01;;;;;;;0.22;0.22;;;15.10;99.90;;;;;;4909177;29;20084;-67
2022/06/06 00:54:28;;;;;;;0.20;0.20;;;15.10;99.90;;;;;;4903034;29;20063;-67
2022/06/06 00:57:05;;;;;;;2.67;0.90;;;15.10;99.90;;;;;;4897329;29;20131;-67
2022/06/06 00:59:35;;;;;;;0.17;0.17;;;15.10;99.90;;;;;;4899562;29;20040;-68
2022/06/06 01:02:01;;;;;;;0.10;0.10;;;15.10;99.90;;;;;;4901946;29;20051;-67
2022/06/06 01:04:28;;;;;;;0.30;0.28;;;15.00;99.90;;;;;;4903653;29;20059;-67
2022/06/06 01:06:54;;;;;;;0.45;0.45;;;15.00;99.90;;;;;;4900281;29;20048;-67
2022/06/06 01:09:22;;;;;;;0.35;0.35;;;15.00;99.90;;;;;;4909638;29;20060;-68
2022/06/06 01:11:55;;;;;;;0.10;0.10;;;15.00;99.90;;;;;;4910265;29;20168;-67
2022/06/06 01:14:24;;;;;;;0.28;0.28;;;15.00;99.90;;;;;;4900493;29;20079;-67
2022/06/06 01:16:57;;;;;;;0.20;0.20;;;15.00;99.90;;;;;;4903527;29;20039;-67
2022/06/06 01:20:00;;;;;;;0.20;0.20;;;15.00;99.90;;;;;;4910916;29;20084;-67
2022/06/06 01:22:36;;;;;;;0.10;0.10;;;14.90;99.90;;;;;;4894894;29;20040;-66
2022/06/06 01:25:42;;;;;;;0.30;0.30;;;14.90;99.90;;;;;;4905530;29;20052;-67
2022/06/06 01:28:33;;;;;;;0.10;0.10;;;14.90;99.90;;;;;;4866361;29;20147;-67
2022/06/06 01:31:03;;;;;;;30.25;0.68;;;14.90;99.90;;;;;;4899572;29;20044;-67
2022/06/06 01:33:28;;;;;;;0.52;0.52;;;14.90;99.90;;;;;;4893022;29;20041;-67
2022/06/06 01:36:00;;;;;;;0.50;0.50;;;14.90;99.90;;;;;;4906324;29;20389;-67
2022/06/06 01:38:26;;;;;;;0.10;0.10;;;14.90;99.90;;;;;;4911093;29;20051;-67
2022/06/06 01:41:09;;;;;;;0.30;0.30;;;14.80;99.90;;;;;;4906300;29;20060;-67
2022/06/06 01:43:42;;;;;;;0.13;0.13;;;14.80;99.90;;;;;;4894605;29;20052;-67
2022/06/06 01:46:18;;;;;;;0.10;0.10;;;14.80;99.90;;;;;;4912149;29;20046;-67
2022/06/06 01:48:45;;;;;;;0.10;0.10;;;14.80;99.90;;;;;;4894253;29;20052;-68
2022/06/06 01:51:14;;;;;;;0.20;0.20;;;14.80;99.90;;;;;;4909720;29;20055;-67
2022/06/06 01:53:41;;;;;;;0.10;0.10;;;14.80;99.90;;;;;;4908577;29;20100;-67
2022/06/06 01:56:10;;;;;;;0.10;0.10;;;14.70;99.90;;;;;;4910787;29;20127;-67
2022/06/06 01:58:36;;;;;;;0.10;0.10;;;14.80;99.90;;;;;;4898319;29;20437;-67
2022/06/06 02:01:03;;;;;;;0.57;0.57;;;14.80;99.90;;;;;;4912014;29;20488;-67
2022/06/06 02:03:30;;;;;;;0.00;0.00;;;14.80;99.90;;;;;;4904676;29;20408;-67
2022/06/06 02:05:56;;;;;;;0.10;0.10;;;14.90;99.90;;;;;;4898564;29;20065;-67
2022/06/06 02:08:22;;;;;;;0.20;0.20;;;14.90;99.90;;;;;;4910453;29;20044;-67
2022/06/06 02:10:48;;;;;;;0.13;0.13;;;14.80;99.90;;;;;;4910250;29;20492;-68
2022/06/06 02:13:15;;;;;;;0.38;0.38;;;14.80;99.90;;;;;;4896529;29;20052;-67
2022/06/06 02:15:41;;;;;;;0.32;0.32;;;14.90;99.90;;;;;;4907556;29;20502;-67
2022/06/06 02:18:07;;;;;;;0.10;0.10;;;14.80;99.90;;;;;;4909285;29;20044;-67
2022/06/06 02:20:34;;;;;;;0.00;0.00;;;14.80;99.90;;;;;;4908114;29;20087;-67
2022/06/06 02:23:00;;;;;;;0.20;0.17;;;14.70;99.90;;;;;;4900105;29;20048;-68
2022/06/06 02:25:27;;;;;;;0.13;0.13;;;14.80;99.90;;;;;;4902353;29;20048;-67
2022/06/06 02:27:53;;;;;;;0.10;0.10;;;14.80;99.90;;;;;;4905499;29;20057;-67
2022/06/06 02:30:25;;;;;;;0.10;0.10;;;14.80;99.90;;;;;;4906995;29;20103;-67
2022/06/06 02:32:51;;;;;;;0.20;0.20;;;14.70;99.90;;;;;;4907152;29;20044;-68
2022/06/06 02:35:29;;;;;;;0.20;0.20;;;14.70;99.90;;;;;;4908446;29;20055;-67
2022/06/06 02:37:58;;;;;;;1.90;1.17;;;14.80;99.90;;;;;;4906811;29;20048;-68
2022/06/06 02:40:26;;;;;;;0.08;0.08;;;14.70;99.90;;;;;;4898755;29;20052;-67
2022/06/06 02:42:52;;;;;;;0.15;0.15;;;14.80;99.90;;;;;;4896112;29;20071;-67
2022/06/06 02:45:18;;;;;;;0.20;0.20;;;14.70;99.90;;;;;;4910686;29;20056;-68
2022/06/06 02:47:47;;;;;;;0.60;0.35;;;14.70;99.90;;;;;;4912804;29;20056;-67
2022/06/06 02:50:15;;;;;;;0.30;0.30;;;14.80;99.90;;;;;;4912362;29;20052;-67
2022/06/06 02:52:41;;;;;;;0.10;0.10;;;14.80;99.90;;;;;;4903693;29;20107;-67
2022/06/06 02:55:10;;;;;;;0.00;0.00;;;14.80;99.90;;;;;;4907680;29;20044;-67
2022/06/06 02:57:37;;;;;;;0.30;0.30;;;14.80;99.90;;;;;;4914007;29;20044;-67
2022/06/06 03:00:06;;;;;;;0.10;0.10;;;14.70;99.90;;;;;;4911468;29;20090;-67
2022/06/06 03:02:33;;;;;;;0.65;0.65;;;14.70;99.90;;;;;;4904302;29;20048;-67
2022/06/06 03:04:58;;;;;;;0.00;0.00;;;14.70;99.90;;;;;;4909625;29;20103;-68
2022/06/06 03:08:02;;;;;;;0.10;0.10;;;14.70;99.90;;;;;;4911752;29;20134;-67
2022/06/06 03:10:40;;;;;;;0.20;0.20;;;14.70;99.90;;;;;;4900564;29;20107;-67
2022/06/06 03:13:27;;;;;;;0.10;0.10;;;14.80;99.90;;;;;;4907162;29;20055;-67
2022/06/06 03:22:31;;;;;;;0.10;0.10;;;14.70;99.90;;;;;;4903439;29;20135;-68
2022/06/06 03:25:04;;;;;;;0.32;0.20;;;14.80;99.90;;;;;;4912857;29;20126;-67
2022/06/06 03:28:09;;;;;;;0.10;0.10;;;14.70;99.90;;;;;;4913633;29;20052;-67
2022/06/06 03:31:00;;;;;;;0.10;0.10;;;14.80;99.90;;;;;;4900460;29;20052;-67
2022/06/06 03:34:02;;;;;;;0.00;0.00;;;14.80;99.90;;;;;;4913221;29;20119;-67
2022/06/06 03:36:38;;;;;;;0.20;0.20;;;14.80;99.90;;;;;;4903473;29;20143;-67
2022/06/06 03:39:19;;;;;;;0.10;0.10;;;14.80;99.90;;;;;;4897946;29;20054;-68
2022/06/06 03:42:10;;;;;;;0.20;0.20;;;14.80;99.90;;;;;;4910930;29;20484;-68
2022/06/06 03:44:48;;;;;;;0.80;0.68;;;14.80;99.90;;;;;;4897010;29;20052;-67
2022/06/06 03:47:13;;;;;;;0.10;0.10;;;14.80;99.90;;;;;;4908501;29;20052;-68
2022/06/06 03:49:59;;;;;;;0.20;0.20;;;14.80;99.90;;;;;;4893896;29;20052;-68
2022/06/06 03:52:44;;;;;;;0.10;0.10;;;14.80;99.90;;;;;;4906425;29;20044;-68
2022/06/06 03:55:12;;;;;;;0.30;0.30;;;14.80;99.90;;;;;;4909485;29;20113;-68
2022/06/06 03:57:39;;;;;;;0.25;0.25;;;14.80;99.90;;;;;;4904070;29;20039;-68
2022/06/06 04:00:14;;;;;;;0.10;0.10;;;14.80;99.90;;;;;;4896962;29;20032;-68
2022/06/06 04:02:43;;;;;;;0.38;0.38;;;14.80;99.90;;;;;;4895197;29;20066;-67
2022/06/06 04:05:13;;;;;;;0.10;0.10;;;14.80;99.90;;;;;;4902021;29;20538;-68
2022/06/06 04:07:39;;;;;;;0.13;0.13;;;14.80;99.90;;;;;;4902358;29;20163;-67
2022/06/06 04:10:05;;;;;;;0.10;0.10;;;14.80;99.90;;;;;;4903866;29;20135;-68
2022/06/06 04:13:09;;;;;;;0.55;0.30;;;14.80;99.90;;;;;;4908117;29;20044;-68
2022/06/06 04:15:57;;;;;;;0.10;0.10;;;14.80;99.90;;;;;;4904359;29;20080;-68
2022/06/06 04:18:26;;;;;;;0.17;0.17;;;14.80;99.90;;;;;;4900953;29;20048;-68
2022/06/06 04:20:51;;;;;;;0.15;0.15;;;14.90;99.90;;;;;;4910063;29;20444;-68
2022/06/06 04:23:29;;;;;;;0.10;0.10;;;14.80;99.90;;;;;;4912535;29;20468;-67
2022/06/06 04:26:18;;;;;;;0.00;0.00;;;14.90;99.90;;;;;;4895295;29;20057;-68
2022/06/06 04:28:49;;;;;;;1.00;0.68;;;14.90;99.90;;;;;;4909487;29;20060;-68
2022/06/06 04:31:49;;;;;;;0.10;0.10;;;14.80;99.90;;;;;;4909726;29;20083;-68
2022/06/06 04:34:53;;;;;;;0.10;0.10;;;14.80;99.90;;;;;;4899788;29;20068;-68
2022/06/06 04:37:22;;;;;;;;;;;14.80;99.90;;;;;;4900122;29;20070;-68
2022/06/06 04:40:35;;;;;;;0.43;0.43;;;14.80;99.90;;;;;;4910518;29;19927;-68
2022/06/06 04:43:35;;;;;;;0.45;0.35;;;14.80;99.90;;;;;;4881636;29;20062;-68
2022/06/06 04:46:18;;;;;;;0.57;0.57;;;14.80;99.90;;;;;;4900888;29;20055;-68
2022/06/06 04:48:46;;;;;;;0.00;0.00;;;14.80;99.90;;;;;;4912560;29;20488;-69
2022/06/06 04:51:16;;;;;;;0.17;0.17;;;14.80;99.90;;;;;;4906499;29;20072;-68
2022/06/06 04:53:45;;;;;;;0.00;0.00;;;14.80;99.90;;;;;;4898333;29;20054;-68
2022/06/06 04:56:14;;;;;;;0.08;0.08;;;14.70;99.90;;;;;;4910809;29;20578;-68
2022/06/06 04:58:42;;;;;;;0.10;0.10;;;14.70;99.90;;;;;;4906963;29;20058;-68
2022/06/06 05:01:09;;;;;;;0.10;0.10;;;14.70;99.90;;;;;;4903096;29;20072;-68
2022/06/06 05:03:34;;;;;;;0.00;0.00;;;14.60;99.90;;;;;;4911389;29;20523;-68
2022/06/06 05:06:21;;;;;;;0.00;0.00;;;14.70;99.90;;;;;;4910667;29;20075;-68
2022/06/06 05:09:02;;;;;;;0.00;0.00;;;14.60;99.90;;;;;;4901796;29;20036;-67
2022/06/06 05:11:34;;;;;;;1.27;0.52;;;14.60;99.90;;;;;;4908396;29;20095;-67
2022/06/06 05:14:24;;;;;;;0.10;0.10;;;14.50;99.90;;;;;;4911227;29;20048;-67
2022/06/06 05:17:12;;;;;;;0.15;0.15;;;14.60;99.90;;;;;;4897281;29;20044;-67
2022/06/06 05:19:52;;;;;;;0.63;0.40;;;14.60;99.90;;;;;;4898582;29;20050;-67
2022/06/06 05:22:33;;;;;;;0.55;0.25;;;14.60;99.90;;;;;;4909403;29;20108;-67
2022/06/06 05:25:22;;;;;;;0.10;0.10;;;14.50;99.90;;;;;;4909951;29;20138;-67
2022/06/06 05:28:09;;;;;;;1.95;0.70;;;14.50;99.90;;;;;;4908878;29;20293;-67
2022/06/06 05:31:03;;;;;;;0.30;0.30;;;14.50;99.90;;;;;;4907499;29;20749;-67
2022/06/06 05:33:29;;;;;;;0.10;0.10;;;14.50;99.90;;;;;;4897894;29;20044;-67
2022/06/06 05:36:08;;;;;;;0.10;0.10;;;14.50;99.90;;;;;;4896060;29;20535;-67
2022/06/06 05:39:11;;;;;;;0.10;0.10;;;14.40;99.90;;;;;;4910616;29;20073;-67
2022/06/06 05:42:00;;;;;;;0.10;0.10;;;14.40;99.90;;;;;;4907222;29;20051;-67
2022/06/06 05:44:34;;;;;;;0.75;0.55;;;14.30;99.90;;;;;;4902023;29;20570;-67
2022/06/06 05:47:24;;;;;;;0.10;0.10;;;14.30;99.90;;;;;;4902682;29;20090;-67
2022/06/06 05:49:56;;;;;;;0.00;0.00;;;14.40;99.90;;;;;;4911193;29;20186;-67
2022/06/06 05:52:54;;;;;;;0.28;0.28;;;14.30;99.90;;;;;;4900903;29;20072;-67
2022/06/06 05:55:28;;;;;;;0.00;0.00;;;14.20;99.90;;;;;;4879648;29;20688;-67
2022/06/06 05:58:21;;;;;;;0.10;0.10;;;14.20;99.90;;;;;;4908366;29;20048;-67
2022/06/06 06:00:57;;;;;;;0.20;0.20;;;14.20;99.90;;;;;;4901992;29;20080;-67
2022/06/06 06:03:45;;;;;;;0.03;0.03;;;14.10;99.90;;;;;;4913286;29;20050;-67
2022/06/06 06:06:23;;;;;;;0.65;0.63;;;14.10;99.90;;;;;;4903517;29;20177;-66
2022/06/06 06:09:18;;;;;;;0.10;0.10;;;14.10;99.90;;;;;;4909366;29;20504;-66
2022/06/06 06:12:13;;;;;;;0.22;0.22;;;14.10;99.90;;;;;;4899201;29;20051;-67
2022/06/06 06:15:05;;;;;;;0.75;0.75;;;14.10;99.90;;;;;;4890540;29;20162;-67
2022/06/06 06:17:33;;;;;;;0.10;0.10;;;14.10;99.90;;;;;;4904487;29;20135;-67
2022/06/06 06:20:08;;;;;;;8.15;1.17;;;14.00;99.90;;;;;;4915500;29;20047;-67
2022/06/06 06:22:41;;;;;;;0.22;0.22;;;14.00;99.90;;;;;;4907475;29;20056;-66
2022/06/06 06:25:09;;;;;;;0.30;0.30;;;14.00;99.90;;;;;;4902081;29;20059;-66
2022/06/06 06:27:35;;;;;;;0.30;0.30;;;14.00;99.90;;;;;;4901608;29;20196;-67
2022/06/06 06:30:03;;;;;;;0.10;0.10;;;14.00;99.90;;;;;;4895018;29;20067;-67
2022/06/06 06:32:42;;;;;;;0.10;0.10;;;14.00;99.90;;;;;;4898952;29;20130;-65
2022/06/06 06:35:21;;;;;;;0.10;0.10;;;14.00;99.90;;;;;;4913905;29;20157;-66
2022/06/06 06:38:06;;;;;;;0.08;0.08;;;14.00;99.90;;;;;;4903862;29;20059;-66
2022/06/06 06:41:10;;;;;;;0.10;0.10;;;14.00;99.90;;;;;;4901178;29;20512;-66
2022/06/06 06:43:58;;;;;;;0.00;0.00;;;14.00;99.90;;;;;;4894896;29;20044;-65
2022/06/06 06:46:33;;;;;;;0.00;0.00;;;14.00;99.90;;;;;;4895252;29;20048;-66
2022/06/06 06:49:11;;;;;;;0.00;0.00;;;13.90;99.90;;;;;;4912144;29;20484;-66
2022/06/06 06:51:48;;;;;;;0.00;0.00;;;14.00;99.90;;;;;;4904207;29;20068;-66
2022/06/06 06:54:37;;;;;;;0.20;0.20;;;14.00;99.90;;;;;;4897453;29;20053;-66
2022/06/06 06:57:20;;;;;;;0.10;0.10;;;13.90;99.90;;;;;;4899143;29;20140;-66
2022/06/06 06:59:57;;;;;;;0.10;0.10;;;14.00;99.90;;;;;;4907473;29;20047;-66
2022/06/06 07:08:32;;;;;;;0.10;0.10;;;14.20;99.90;;;;;;4912658;29;20040;-66
2022/06/06 07:11:28;;;;;;;0.10;0.10;;;14.20;99.90;;;;;;4905373;29;20131;-66
2022/06/06 07:14:13;;;;;;;0.10;0.10;;;14.40;99.90;;;;;;4912462;29;20436;-66
2022/06/06 07:16:40;;;;;;;0.10;0.10;;;14.40;99.90;;;;;;4907793;29;20052;-66
2022/06/06 07:19:19;;;;;;;0.10;0.10;;;14.60;99.90;;;;;;4913299;29;20056;-67
2022/06/06 07:21:46;;;;;;;0.08;0.08;;;14.60;99.90;;;;;;4912279;29;20055;-66
2022/06/06 07:24:16;;;;;;;0.20;0.20;;;14.70;99.90;;;;;;4900389;29;20048;-67
2022/06/06 07:26:43;;;;;;;0.10;0.10;;;14.70;99.90;;;;;;4896287;29;20084;-67
2022/06/06 07:29:11;;;;;;;0.43;0.43;;;14.80;99.90;;;;;;4907443;29;20112;-66
2022/06/06 07:32:11;;;;;;;0.20;0.20;;;14.80;99.90;;;;;;4903395;29;20059;-66
2022/06/06 07:35:01;;;;;;;0.25;0.25;;;14.80;99.90;;;;;;4900882;29;20048;-66
2022/06/06 07:38:04;;;;;;;0.00;0.00;;;14.80;99.90;;;;;;4894177;29;20044;-66
2022/06/06 07:40:37;;;;;;;0.77;0.77;;;14.80;99.90;;;;;;4897935;29;20052;-65
2022/06/06 07:43:31;;;;;;;0.30;0.30;;;14.70;99.90;;;;;;4908547;29;20308;-65
2022/06/06 07:46:22;;;;;;;0.10;0.10;;;14.70;99.90;;;;;;4893919;29;20148;-66
2022/06/06 07:48:51;;;;;;;0.10;0.10;;;14.70;99.90;;;;;;4907335;29;20126;-67
2022/06/06 07:51:33;;;;;;;0.10;0.10;;;14.70;99.90;;;;;;4907346;29;20059;-66
2022/06/06 07:54:09;;;;;;;0.63;0.63;;;14.70;99.90;;;;;;4907377;29;20068;-66
2022/06/06 07:56:46;;;;;;;0.05;0.05;;;14.70;99.90;;;;;;4903555;29;20047;-67
2022/06/06 07:59:42;;;;;;;0.47;0.47;;;14.70;99.90;;;;;;4911129;29;20087;-66
2022/06/06 08:02:26;;;;;;;0.47;0.47;;;14.80;99.90;;;;;;4904766;29;20059;-67
2022/06/06 08:05:22;;;;;;;0.03;0.03;;;14.80;99.90;;;;;;4913708;29;20048;-67
2022/06/06 08:08:18;;;;;;;0.10;0.10;;;14.90;99.90;;;;;;4905703;29;20052;-67
2022/06/06 08:10:45;;;;;;;0.00;0.00;;;14.90;99.90;;;;;;4912561;29;20107;-67
2022/06/06 08:13:30;;;;;;;0.10;0.10;;;15.00;99.90;;;;;;4896957;29;20060;-67
2022/06/06 08:16:28;;;;;;;0.00;0.00;;;15.00;99.90;;;;;;4900426;29;20048;-67
2022/06/06 08:19:19;;;;;;;0.10;0.10;;;15.00;99.90;;;;;;4902120;29;20045;-68
2022/06/06 08:21:49;;;;;;;0.00;0.00;;;15.00;99.90;;;;;;4905525;29;20515;-68
2022/06/06 08:24:18;;;;;;;0.38;0.38;;;15.00;99.90;;;;;;4905650;29;20390;-68
2022/06/06 08:26:48;;;;;;;0.65;0.65;;;14.90;99.90;;;;;;4908764;29;20531;-67
2022/06/06 08:29:16;;;;;;;0.10;0.10;;;14.90;99.90;;;;;;4904345;29;20147;-67
2022/06/06 08:31:42;;;;;;;0.00;0.00;;;14.90;99.90;;;;;;4909338;29;20037;-68
2022/06/06 08:34:08;;;;;;;0.38;0.38;;;14.90;99.90;;;;;;4911369;29;20512;-68
2022/06/06 08:36:51;;;;;;;0.20;0.20;;;14.90;99.90;;;;;;4902547;29;20071;-68
2022/06/06 08:39:31;;;;;;;0.10;0.10;;;15.00;99.90;;;;;;4910469;29;20551;-67
2022/06/06 08:42:24;;;;;;;5.05;1.27;;;14.90;99.90;;;;;;4909879;29;20056;-67
2022/06/06 08:45:09;;;;;;;0.10;0.10;;;15.00;99.90;;;;;;4892855;29;20098;-67
2022/06/06 08:48:02;;;;;;;0.20;0.20;;;14.90;99.90;;;;;;4904685;29;20135;-67
2022/06/06 08:50:45;;;;;;;0.13;0.13;;;14.90;99.90;;;;;;4910690;29;20056;-67
2022/06/06 08:53:38;;;;;;;0.32;0.30;;;15.00;99.90;;;;;;4911142;29;20103;-67
2022/06/06 08:56:41;;;;;;;0.60;0.60;;;15.00;99.90;;;;;;4908890;29;20057;-67
2022/06/06 08:59:16;;;;;;;0.10;0.10;;;15.10;99.90;;;;;;4894208;29;20061;-67
2022/06/06 09:02:31;;;;;;;0.00;0.00;;;15.10;99.90;;;;;;4893099;29;20048;-67
2022/06/06 09:05:18;;;;;;;0.10;0.10;;;15.10;99.90;;;;;;4909235;29;20052;-67
2022/06/06 09:08:13;;;;;;;0.00;0.00;;;15.10;99.90;;;;;;4911880;29;20484;-67
2022/06/06 09:11:11;;;;;;;0.10;0.10;;;15.10;99.90;;;;;;4892099;29;20044;-67
2022/06/06 09:13:50;;;;;;;0.05;0.05;;;15.10;99.90;;;;;;4904006;29;20117;-68
2022/06/06 09:17:03;;;;;;;0.10;0.10;;;15.10;99.90;;;;;;4897145;29;20072;-66
2022/06/06 09:20:01;;;;;;;0.32;0.32;;;15.00;99.90;;;;;;4898807;29;20063;-66
2022/06/06 09:22:47;;;;;;;0.28;0.28;;;15.00;99.90;;;;;;4893878;29;20048;-65
2022/06/06 09:25:35;;;;;;;0.30;0.30;;;14.90;99.90;;;;;;4897742;29;20527;-65
2022/06/06 09:28:29;;;;;;;0.88;0.85;;;15.00;99.90;;;;;;4899933;29;20044;-65
2022/06/06 09:31:14;;;;;;;7.72;1.00;;;15.10;99.90;;;;;;4895739;29;20110;-66
2022/06/06 09:34:27;;;;;;;0.13;0.13;;;15.20;99.90;;;;;;4912442;29;20079;-66
2022/06/06 09:37:20;;;;;;;0.10;0.10;;;15.50;99.90;;;;;;4863353;29;20607;-66
2022/06/06 09:40:21;;;;;;;0.10;0.10;;;15.50;99.90;;;;;;4902568;29;20055;-66
2022/06/06 09:43:01;;;;;;;0.20;0.20;;;15.50;99.90;;;;;;4893049;29;20052;-66
2022/06/06 09:45:31;;;;;;;0.40;0.40;;;15.50;99.90;;;;;;4899839;29;20052;-66
2022/06/06 09:48:34;;;;;;;0.30;0.30;;;15.50;99.90;;;;;;4901613;29;20567;-67
2022/06/06 09:51:24;;;;;;;0.20;0.20;;;15.40;99.90;;;;;;4912644;29;20079;-67
2022/06/06 10:00:20;;;;;;;0.10;0.10;;;15.20;99.90;;;;;;4898196;29;20052;-67
2022/06/06 10:03:16;;;;;;;0.38;0.38;;;15.30;99.90;;;;;;4896252;29;20172;-66
2022/06/06 10:06:04;;;;;;;0.30;0.30;;;15.30;99.90;;;;;;4897391;29;20056;-67
2022/06/06 10:08:52;;;;;;;0.10;0.10;;;15.30;99.90;;;;;;4898728;29;20525;-66
2022/06/06 10:11:38;;;;;;;0.28;0.28;;;15.50;99.90;;;;;;4899128;29;20400;-67
2022/06/06 10:14:18;;;;;;;0.10;0.10;;;15.60;99.90;;;;;;4908215;29;20040;-66
2022/06/06 10:17:38;;;;;;;0.08;0.08;;;15.80;99.90;;;;;;4899068;29;20045;-67
2022/06/06 10:21:02;;;;;;;0.10;0.10;;;16.10;99.90;;;;;;4875205;29;20445;-67
2022/06/06 10:23:27;;;;;;;1.13;1.05;;;16.10;99.90;;;;;;4817908;29;20089;-67
2022/06/06 10:26:49;;;;;;;0.10;0.10;;;16.00;99.90;;;;;;4912415;29;20135;-68
2022/06/06 10:32:41;;;;;;;;;;;15.80;99.90;;;;;;4893355;29;20057;-68
2022/06/06 10:35:18;;;;;;;0.55;0.55;;;15.70;99.90;;;;;;4892490;29;19977;-67
2022/06/06 10:38:18;;;;;;;0.00;0.00;;;15.60;99.90;;;;;;4906197;29;20504;-67
2022/06/06 10:41:02;;;;;;;0.95;0.63;;;15.60;99.90;;;;;;4907779;29;20456;-68
2022/06/06 10:43:45;;;;;;;0.25;0.25;;;15.60;99.90;;;;;;4893047;29;20052;-67
2022/06/06 10:46:25;;;;;;;1.05;0.98;;;15.60;99.90;;;;;;4902824;29;20055;-67
2022/06/06 10:49:16;;;;;;;19.52;1.08;;;15.60;99.90;;;;;;4899289;29;20127;-66
2022/06/06 10:52:00;;;;;;;0.10;0.10;;;15.60;99.90;;;;;;4906180;29;20067;-67
2022/06/06 10:54:48;;;;;;;0.65;0.65;;;15.50;99.90;;;;;;4910170;29;20075;-67
2022/06/06 10:57:48;;;;;;;2.25;1.48;;;15.60;99.90;;;;;;4900313;29;20060;-67
2022/06/06 11:00:37;;;;;;;0.20;0.20;;;15.50;99.90;;;;;;4905123;29;20051;-66
2022/06/06 11:03:05;;;;;;;0.65;0.30;;;15.40;99.90;;;;;;4911096;29;20403;-67
2022/06/06 11:05:43;;;;;;;0.20;0.20;;;15.40;99.90;;;;;;4913531;29;20567;-66
2022/06/06 11:08:17;;;;;;;0.03;0.03;;;15.20;99.90;;;;;;4915304;29;20492;-66
2022/06/06 11:11:18;;;;;;;0.10;0.10;;;15.20;99.90;;;;;;4908320;29;20059;-66
2022/06/06 11:14:02;;;;;;;0.10;0.10;;;15.10;99.90;;;;;;4898932;29;20091;-67
2022/06/06 11:16:56;;;;;;;0.00;0.00;;;15.00;99.90;;;;;;4912203;29;20048;-67
2022/06/06 11:19:38;;;;;;;0.25;0.25;;;15.00;99.90;;;;;;4902956;29;20635;-66
2022/06/06 11:22:13;;;;;;;0.10;0.10;;;15.00;99.90;;;;;;4901178;29;20051;-66
2022/06/06 11:24:55;;;;;;;0.13;0.13;;;14.90;99.90;;;;;;4907608;29;20052;-66
2022/06/06 11:27:51;;;;;;;1.15;0.32;;;14.90;99.90;;;;;;4900672;29;20048;-66
2022/06/06 11:30:38;;;;;;;0.10;0.10;;;15.00;99.90;;;;;;4899825;29;20785;-66
2022/06/06 11:33:38;;;;;;;0.10;0.10;;;15.00;99.90;;;;;;4894437;29;20064;-66
2022/06/06 11:36:22;;;;;;;0.10;0.10;;;15.00;99.90;;;;;;4905157;29;20115;-66
2022/06/06 11:39:19;;;;;;;0.20;0.20;;;15.10;99.90;;;;;;4907295;29;20072;-67
2022/06/06 11:42:13;;;;;;;0.10;0.10;;;15.00;99.90;;;;;;4901631;29;20040;-67
2022/06/06 11:44:50;;;;;;;0.20;0.20;;;15.00;99.90;;;;;;4915150;29;20088;-66
2022/06/06 11:47:34;;;;;;;0.50;0.50;;;15.00;99.90;;;;;;4908839;29;20504;-66
2022/06/06 11:50:12;;;;;;;16.15;0.80;;;15.00;99.90;;;;;;4908793;29;20048;-67
2022/06/06 11:52:59;;;;;;;0.52;0.52;;;14.90;99.90;;;;;;4910828;29;20044;-67
2022/06/06 11:55:53;;;;;;;0.63;0.50;;;15.00;99.90;;;;;;4906751;29;20051;-67
2022/06/06 11:58:57;;;;;;;;;;;15.00;99.90;;;;;;4903116;29;20059;-66
2022/06/06 12:01:35;;;;;;;0.10;0.10;;;14.90;99.90;;;;;;4841771;29;19996;-66
2022/06/06 12:04:42;;;;;;;0.40;0.40;;;14.80;99.90;;;;;;4845951;29;20533;-66
2022/06/06 12:07:40;;;;;;;0.10;0.10;;;14.80;99.90;;;;;;4887487;29;20139;-66
2022/06/06 12:10:26;;;;;;;0.20;0.20;;;14.70;99.90;;;;;;4905348;29;20512;-66
2022/06/06 12:13:08;;;;;;;0.10;0.10;;;14.60;99.90;;;;;;4894467;29;20515;-66
2022/06/06 12:16:10;;;;;;;0.20;0.20;;;14.50;99.90;;;;;;4910759;29;20122;-66
2022/06/06 12:18:50;;;;;;;0.10;0.10;;;14.40;99.90;;;;;;4893943;29;20457;-66
2022/06/06 12:21:27;;;;;;;0.10;0.10;;;14.50;99.90;;;;;;4907423;29;20066;-66
2022/06/06 12:23:59;;;;;;;0.03;0.03;;;14.50;99.90;;;;;;4911841;29;20400;-66
2022/06/06 12:26:43;;;;;;;0.00;0.00;;;14.50;99.90;;;;;;4912018;29;20505;-68
2022/06/06 12:29:42;;;;;;;0.00;0.00;;;14.50;99.90;;;;;;4903485;29;20056;-66
2022/06/06 12:32:28;;;;;;;0.10;0.10;;;14.50;99.90;;;;;;4901076;29;20052;-66
2022/06/06 12:35:16;;;;;;;0.10;0.10;;;14.60;99.90;;;;;;4905463;29;20056;-66
2022/06/06 12:37:56;;;;;;;0.10;0.10;;;14.60;99.90;;;;;;4898450;29;20051;-66
2022/06/06 12:40:53;;;;;;;0.10;0.10;;;14.60;99.90;;;;;;4907010;29;20059;-66
2022/06/06 12:43:43;;;;;;;0.10;0.10;;;14.60;99.90;;;;;;4898399;29;20045;-66
2022/06/06 12:46:47;;;;;;;0.20;0.20;;;14.60;99.90;;;;;;4893467;29;20087;-67
2022/06/06 12:49:23;;;;;;;0.43;0.40;;;14.70;99.90;;;;;;4900087;29;20066;-66
2022/06/06 12:52:05;;;;;;;0.03;0.03;;;14.70;99.90;;;;;;4896676;29;20488;-66
2022/06/06 12:55:24;;;;;;;0.77;0.77;;;14.60;99.90;;;;;;4908128;29;20091;-66
2022/06/06 12:57:42;;;;;;;0.00;0.00;;;14.70;99.90;;;;;;4893380;29;20080;-67
2022/06/06 13:00:11;;;;;;;0.08;0.08;;;14.60;99.90;;;;;;4905312;29;20052;-66
2022/06/06 13:03:09;;;;;;;0.10;0.10;;;14.60;99.90;;;;;;4902484;29;20055;-67
2022/06/06 13:05:50;;;;;;;0.00;0.00;;;14.50;99.90;;;;;;4905493;29;20044;-66
2022/06/06 13:08:36;;;;;;;0.10;0.10;;;14.50;99.90;;;;;;4897330;29;20772;-67
2022/06/06 13:11:43;;;;;;;2.42;0.95;;;14.50;99.90;;;;;;4902583;29;20103;-67
2022/06/06 13:14:38;;;;;;;0.10;0.10;;;14.40;99.90;;;;;;4897038;29;20519;-67
2022/06/06 13:17:19;;;;;;;0.08;0.08;;;14.40;99.90;;;;;;4892158;29;20049;-68
2022/06/06 13:20:19;;;;;;;0.10;0.10;;;14.40;99.90;;;;;;4894330;29;20212;-67
2022/06/06 13:22:51;;;;;;;0.20;0.20;;;14.30;99.90;;;;;;4905668;29;20072;-67
2022/06/06 13:25:32;;;;;;;0.00;0.00;;;14.30;99.90;;;;;;4897115;29;20901;-67
2022/06/06 13:28:11;;;;;;;0.00;0.00;;;14.30;99.90;;;;;;4906868;29;20064;-67
2022/06/06 13:31:01;;;;;;;0.00;0.00;;;14.30;99.90;;;;;;4899659;29;20044;-68
2022/06/06 13:33:45;;;;;;;0.10;0.10;;;14.20;99.90;;;;;;4906243;29;20059;-67
2022/06/06 13:36:22;;;;;;;0.00;0.00;;;14.20;99.90;;;;;;4891882;29;20056;-67
2022/06/06 13:39:21;;;;;;;0.10;0.10;;;14.20;99.90;;;;;;4905234;29;20131;-67
2022/06/06 13:42:11;;;;;;;0.10;0.10;;;14.30;99.90;;;;;;4898186;29;20107;-67
2022/06/06 13:45:07;;;;;;;0.00;0.00;;;14.20;99.90;;;;;;4905919;29;20079;-67
2022/06/06 13:47:53;;;;;;;0.20;0.20;;;14.20;99.90;;;;;;4903260;29;20044;-67
2022/06/06 13:50:27;;;;;;;0.00;0.00;;;14.20;99.90;;;;;;4904713;29;20123;-67
2022/06/06 13:53:14;;;;;;;0.05;0.05;;;14.20;99.90;;;;;;4901234;29;20052;-66
2022/06/06 13:55:40;;;;;;;0.68;0.68;;;14.10;99.90;;;;;;4911108;29;20063;-66
2022/06/06 13:58:43;;;;;;;0.10;0.10;;;14.10;99.90;;;;;;4899488;29;20052;-67
2022/06/06 14:01:27;;;;;;;0.10;0.10;;;14.20;99.90;;;;;;4900657;29;20041;-67
2022/06/06 14:03:56;;;;;;;0.10;0.10;;;14.20;99.90;;;;;;4897345;29;20064;-67
2022/06/06 14:06:54;;;;;;;0.15;0.15;;;14.20;99.90;;;;;;4897511;29;20036;-67
2022/06/06 14:09:46;;;;;;;0.00;0.00;;;14.20;99.90;;;;;;4904914;29;20048;-67
2022/06/06 14:12:41;;;;;;;2.90;1.35;;;14.20;99.90;;;;;;4898442;29;20175;-67
2022/06/06 14:15:09;;;;;;;0.00;0.00;;;14.20;99.90;;;;;;4894932;29;20052;-67
2022/06/06 14:17:38;;;;;;;0.73;0.38;;;14.20;99.90;;;;;;4904885;29;20076;-67
2022/06/06 14:20:19;;;;;;;0.03;0.03;;;14.20;99.90;;;;;;4894937;29;20067;-66
2022/06/06 14:22:45;;;;;;;0.10;0.10;;;14.20;99.90;;;;;;4903261;29;20874;-67
2022/06/06 14:25:12;;;;;;;0.52;0.52;;;14.20;99.90;;;;;;4903625;29;20067;-67
2022/06/06 14:27:39;;;;;;;0.10;0.10;;;14.20;99.90;;;;;;4909003;29;20044;-67